createdAt,value
2017-10-09T00:01:26.718Z,88.10
2017-10-09T00:03:54.506Z,88.00
2017-10-09T00:06:21.937Z,88.00
2017-10-09T00:08:49.387Z,88.20
2017-10-09T00:11:16.833Z,88.50
2017-10-09T00:13:45.033Z,88.80
2017-10-09T00:16:12.922Z,88.80
2017-10-09T00:18:40.361Z,88.90
2017-10-09T00:21:07.806Z,89.00
2017-10-09T00:23:35.250Z,89.10
2017-10-09T00:26:02.767Z,89.20
2017-10-09T00:28:30.213Z,89.00
2017-10-09T00:30:57.650Z,89.30
2017-10-09T00:33:25.430Z,89.30
2017-10-09T00:35:52.874Z,89.50
2017-10-09T00:38:20.311Z,89.60
2017-10-09T00:40:47.749Z,89.50
2017-10-09T00:43:15.941Z,89.00
2017-10-09T00:45:43.397Z,88.90
2017-10-09T00:48:10.833Z,88.80
2017-10-09T00:50:39.314Z,88.70
2017-10-09T00:53:07.508Z,88.50
2017-10-09T00:55:34.940Z,88.50
2017-10-09T00:58:03.897Z,88.20
2017-10-09T01:00:31.363Z,88.20
2017-10-09T01:02:58.817Z,88.00
2017-10-09T01:05:26.261Z,87.90
2017-10-09T01:07:54.038Z,87.90
2017-10-09T01:10:21.478Z,88.00
2017-10-09T01:12:48.910Z,87.90
2017-10-09T01:15:16.409Z,87.70
2017-10-09T01:17:43.874Z,87.50
2017-10-09T01:20:11.629Z,87.50
2017-10-09T01:22:39.074Z,87.70
2017-10-09T01:25:06.554Z,87.90
2017-10-09T01:27:33.997Z,88.00
2017-10-09T01:30:01.442Z,87.70
2017-10-09T01:32:29.227Z,87.80
2017-10-09T01:34:56.690Z,87.60
2017-10-09T01:37:24.142Z,87.70
2017-10-09T01:39:51.696Z,87.90
2017-10-09T01:42:19.133Z,87.90
2017-10-09T01:44:46.642Z,88.20
2017-10-09T01:47:14.081Z,88.20
2017-10-09T01:49:41.834Z,88.30
2017-10-09T01:52:09.294Z,88.30
2017-10-09T01:54:36.739Z,88.30
2017-10-09T01:57:04.228Z,88.60
2017-10-09T01:59:31.654Z,88.50
2017-10-09T02:01:59.100Z,88.20
2017-10-09T02:04:26.529Z,88.00
2017-10-09T02:06:55.058Z,87.80
2017-10-09T02:09:22.612Z,87.80
2017-10-09T02:11:50.090Z,87.70
2017-10-09T02:14:17.543Z,87.80
2017-10-09T02:16:44.977Z,87.80
2017-10-09T02:19:12.428Z,88.10
2017-10-09T02:21:39.869Z,88.10
2017-10-09T02:24:07.586Z,88.10
2017-10-09T02:26:35.219Z,88.20
2017-10-09T02:29:02.663Z,88.30
2017-10-09T02:31:30.109Z,88.30
2017-10-09T02:33:57.607Z,88.10
2017-10-09T02:36:25.060Z,88.20
2017-10-09T02:38:52.499Z,88.00
2017-10-09T02:41:20.287Z,88.10
2017-10-09T02:43:47.725Z,88.10
2017-10-09T02:46:15.162Z,88.00
2017-10-09T02:48:42.618Z,88.10
2017-10-09T02:51:10.054Z,88.20
2017-10-09T02:53:38.274Z,88.10
2017-10-09T02:56:05.832Z,88.00
2017-10-09T02:58:33.621Z,87.90
2017-10-09T03:01:01.074Z,88.10
2017-10-09T03:03:28.613Z,87.80
2017-10-09T03:05:56.046Z,87.20
2017-10-09T03:08:23.481Z,86.90
2017-10-09T03:10:51.734Z,87.00
2017-10-09T03:13:20.754Z,87.20
2017-10-09T03:15:49.297Z,87.30
2017-10-09T03:18:16.740Z,87.30
2017-10-09T03:20:44.178Z,87.20
2017-10-09T03:23:17.210Z,87.20
2017-10-09T03:25:45.557Z,88.10
2017-10-09T03:28:13.001Z,87.40
2017-10-09T03:30:40.461Z,87.50
2017-10-09T03:33:07.950Z,87.50
2017-10-09T03:35:35.386Z,87.70
2017-10-09T03:38:02.830Z,87.80
2017-10-09T03:40:30.273Z,88.40
2017-10-09T03:42:58.771Z,88.70
2017-10-09T03:45:26.197Z,88.70
2017-10-09T03:47:53.716Z,88.70
2017-10-09T03:50:21.200Z,88.80
2017-10-09T03:52:48.649Z,88.80
2017-10-09T03:55:16.089Z,88.80
2017-10-09T03:57:43.636Z,88.70
2017-10-09T04:00:11.065Z,88.60
2017-10-09T04:02:38.502Z,88.50
2017-10-09T04:05:07.046Z,89.60
2017-10-09T04:07:35.254Z,88.80
2017-10-09T04:10:02.690Z,88.60
2017-10-09T04:12:30.137Z,88.60
2017-10-09T04:14:57.576Z,88.80
2017-10-09T04:17:25.361Z,88.80
2017-10-09T04:19:52.805Z,88.80
2017-10-09T04:22:20.262Z,88.80
2017-10-09T04:24:47.706Z,89.10
2017-10-09T04:27:15.159Z,89.00
2017-10-09T04:29:42.595Z,88.80
2017-10-09T04:32:10.802Z,88.70
2017-10-09T04:34:38.585Z,88.60
2017-10-09T04:37:06.034Z,88.80
2017-10-09T04:39:33.502Z,89.00
2017-10-09T04:42:00.953Z,89.10
2017-10-09T04:44:28.513Z,89.10
2017-10-09T04:46:56.281Z,89.10
2017-10-09T04:49:23.726Z,89.00
2017-10-09T04:51:51.209Z,88.90
2017-10-09T04:54:18.653Z,89.00
2017-10-09T04:56:46.113Z,88.90
2017-10-09T04:59:13.849Z,88.90
2017-10-09T05:01:41.282Z,88.80
2017-10-09T05:04:09.496Z,88.70
2017-10-09T05:06:36.939Z,88.70
2017-10-09T05:09:04.372Z,88.80
2017-10-09T05:11:32.841Z,88.70
2017-10-09T05:14:00.281Z,88.60
2017-10-09T05:16:27.717Z,88.60
2017-10-09T05:18:55.173Z,88.60
2017-10-09T05:21:22.617Z,88.80
2017-10-09T05:23:50.394Z,88.70
2017-10-09T05:26:17.830Z,88.80
2017-10-09T05:28:45.265Z,88.90
2017-10-09T05:31:13.738Z,89.00
2017-10-09T05:33:41.947Z,89.10
2017-10-09T05:36:09.379Z,89.00
2017-10-09T05:38:37.594Z,89.10
2017-10-09T05:41:05.041Z,88.90
2017-10-09T05:43:32.477Z,89.20
2017-10-09T05:45:59.915Z,89.20
2017-10-09T05:48:28.393Z,89.40
2017-10-09T05:50:56.595Z,89.40
2017-10-09T05:53:24.038Z,89.40
2017-10-09T05:55:51.547Z,89.50
2017-10-09T05:58:18.996Z,89.60
2017-10-09T06:00:46.553Z,89.40
2017-10-09T06:03:14.008Z,89.50
2017-10-09T06:05:41.886Z,89.70
2017-10-09T06:08:09.341Z,89.80
2017-10-09T06:10:36.789Z,90.00
2017-10-09T06:13:04.238Z,89.90
2017-10-09T06:15:31.718Z,89.80
2017-10-09T06:17:59.482Z,89.70
2017-10-09T06:20:26.936Z,89.90
2017-10-09T06:22:54.397Z,89.80
2017-10-09T06:25:21.870Z,89.70
2017-10-09T06:27:49.304Z,89.80
2017-10-09T06:30:16.769Z,89.60
2017-10-09T06:32:44.204Z,89.70
2017-10-09T06:35:11.973Z,89.50
2017-10-09T06:37:39.408Z,89.60
2017-10-09T06:40:06.918Z,89.40
2017-10-09T06:42:34.361Z,89.20
2017-10-09T06:45:01.802Z,89.00
2017-10-09T06:47:29.242Z,88.70
2017-10-09T06:49:56.690Z,88.60
2017-10-09T06:52:24.134Z,88.50
2017-10-09T06:54:52.340Z,87.90
2017-10-09T06:57:20.129Z,87.80
2017-10-09T06:59:48.334Z,87.20
2017-10-09T07:02:15.773Z,87.20
2017-10-09T07:04:43.314Z,87.40
2017-10-09T07:07:10.754Z,87.50
2017-10-09T07:09:38.206Z,88.30
2017-10-09T07:12:05.645Z,87.10
2017-10-09T07:14:33.862Z,87.80
2017-10-09T07:17:01.304Z,87.70
2017-10-09T07:19:29.088Z,87.40
2017-10-09T07:21:56.533Z,87.10
2017-10-09T07:24:23.970Z,86.90
2017-10-09T07:26:51.548Z,87.20
2017-10-09T07:29:18.970Z,87.40
2017-10-09T07:31:47.701Z,86.70
2017-10-09T07:34:15.133Z,86.70
2017-10-09T07:36:42.579Z,86.50
2017-10-09T07:39:10.791Z,86.20
2017-10-09T07:41:38.226Z,86.10
2017-10-09T07:44:06.001Z,85.70
2017-10-09T07:46:33.414Z,85.10
2017-10-09T07:49:01.630Z,85.20
2017-10-09T07:51:29.074Z,85.10
2017-10-09T07:53:56.510Z,85.10
2017-10-09T07:56:24.748Z,85.20
2017-10-09T07:58:52.182Z,85.20
2017-10-09T08:01:19.639Z,85.10
2017-10-09T08:03:47.092Z,84.40
2017-10-09T08:06:14.869Z,83.80
2017-10-09T08:08:43.069Z,83.60
2017-10-09T08:11:10.521Z,83.60
2017-10-09T08:13:38.005Z,83.50
2017-10-09T08:16:06.206Z,83.70
2017-10-09T08:18:34.073Z,83.60
2017-10-09T08:21:02.270Z,83.20
2017-10-09T08:23:30.182Z,83.10
2017-10-09T08:25:57.706Z,82.90
2017-10-09T08:28:25.178Z,82.70
2017-10-09T08:30:53.026Z,82.10
2017-10-09T08:33:20.469Z,81.10
2017-10-09T08:35:47.933Z,80.30
2017-10-09T08:38:15.426Z,79.30
2017-10-09T08:43:17.851Z,77.20
2017-10-09T08:45:46.135Z,75.80
2017-10-09T08:50:48.162Z,74.00
2017-10-09T08:53:15.696Z,73.90
2017-10-09T08:55:43.208Z,73.10
2017-10-09T09:03:16.726Z,68.60
2017-10-09T09:05:44.223Z,66.50
2017-10-09T09:08:12.482Z,60.40
2017-10-09T09:18:20.607Z,60.10
2017-10-09T09:20:48.120Z,60.70
2017-10-09T09:23:16.424Z,61.90
2017-10-09T09:25:43.907Z,61.80
2017-10-09T09:28:11.407Z,62.40
2017-10-09T09:30:39.646Z,65.70
2017-10-09T09:33:07.177Z,65.60
2017-10-09T09:38:07.473Z,66.40
2017-10-09T09:45:41.496Z,68.70
2017-10-09T09:48:10.478Z,70.30
2017-10-09T09:55:43.850Z,69.20
2017-10-09T09:58:12.055Z,69.00
2017-10-09T10:00:40.270Z,69.50
2017-10-09T10:03:07.715Z,69.30
2017-10-09T10:05:35.162Z,68.40
2017-10-09T10:08:02.598Z,68.00
2017-10-09T10:10:30.383Z,68.30
2017-10-09T10:12:57.927Z,68.70
2017-10-09T10:15:25.345Z,67.90
2017-10-09T10:17:53.559Z,66.00
2017-10-09T10:20:20.997Z,65.80
2017-10-09T10:22:48.803Z,64.20
2017-10-09T10:25:16.239Z,62.90
2017-10-09T10:27:43.674Z,61.10
2017-10-09T10:30:11.123Z,56.80
2017-10-09T10:32:39.322Z,54.40
2017-10-09T10:35:06.781Z,54.30
2017-10-09T10:37:34.226Z,53.90
2017-10-09T10:40:01.974Z,53.50
2017-10-09T10:42:30.170Z,54.60
2017-10-09T10:44:57.617Z,54.60
2017-10-09T10:47:25.081Z,54.80
2017-10-09T10:49:52.554Z,55.80
2017-10-09T10:52:19.984Z,55.60
2017-10-09T10:54:47.438Z,55.10
2017-10-09T10:57:15.652Z,55.80
2017-10-09T10:59:43.091Z,55.70
2017-10-09T11:02:10.881Z,56.90
2017-10-09T11:04:39.138Z,57.80
2017-10-09T11:07:06.561Z,57.70
2017-10-09T11:09:34.781Z,58.20
2017-10-09T11:12:02.225Z,58.10
2017-10-09T11:14:29.682Z,58.60
2017-10-09T11:16:57.134Z,59.60
2017-10-09T11:19:24.832Z,60.10
2017-10-09T11:21:52.274Z,60.20
2017-10-09T11:24:19.726Z,60.10
2017-10-09T11:26:47.165Z,60.80
2017-10-09T11:29:14.611Z,59.60
2017-10-09T11:31:42.830Z,59.00
2017-10-09T11:34:10.270Z,58.90
2017-10-09T11:36:38.017Z,59.30
2017-10-09T11:39:05.486Z,58.40
2017-10-09T11:41:32.921Z,59.10
2017-10-09T11:44:01.126Z,57.90
2017-10-09T11:46:28.561Z,57.90
2017-10-09T11:48:56.271Z,58.40
2017-10-09T11:51:23.710Z,57.40
2017-10-09T11:53:51.148Z,56.50
2017-10-09T11:56:18.585Z,56.40
2017-10-09T11:58:46.029Z,56.70
2017-10-09T12:01:14.237Z,58.90
2017-10-09T12:03:41.678Z,58.70
2017-10-09T12:06:10.187Z,59.10
2017-10-09T12:08:37.610Z,59.00
2017-10-09T12:11:05.816Z,62.70
2017-10-09T12:13:33.261Z,62.70
2017-10-09T12:16:00.698Z,63.10
2017-10-09T12:18:28.909Z,65.20
2017-10-09T12:20:56.349Z,65.10
2017-10-09T12:23:24.154Z,67.40
2017-10-09T12:25:51.592Z,66.50
2017-10-09T12:28:19.030Z,66.40
2017-10-09T12:30:46.477Z,66.90
2017-10-09T12:33:14.685Z,62.90
2017-10-09T12:35:42.464Z,62.70
2017-10-09T12:38:09.901Z,59.00
2017-10-09T12:40:37.342Z,54.90
2017-10-09T12:43:04.818Z,52.80
2017-10-09T12:45:32.242Z,50.80
2017-10-09T12:47:59.685Z,50.50
2017-10-09T12:50:27.885Z,48.30
2017-10-09T12:52:55.682Z,48.30
2017-10-09T12:55:23.117Z,48.50
2017-10-09T12:57:50.554Z,49.50
2017-10-09T13:00:17.999Z,50.00
2017-10-09T13:02:46.194Z,52.50
2017-10-09T13:05:13.674Z,52.40
2017-10-09T13:07:41.092Z,52.60
2017-10-09T13:10:09.587Z,56.00
2017-10-09T13:12:37.088Z,55.90
2017-10-09T13:15:04.547Z,56.60
2017-10-09T13:17:32.101Z,57.00
2017-10-09T13:19:59.562Z,57.40
2017-10-09T13:22:27.289Z,57.60
2017-10-09T13:24:55.606Z,56.90
2017-10-09T13:27:23.045Z,56.20
2017-10-09T13:29:50.507Z,56.40
2017-10-09T13:32:17.930Z,56.90
2017-10-09T13:34:45.769Z,58.10
2017-10-09T13:37:13.305Z,58.50
2017-10-09T13:39:40.766Z,57.90
2017-10-09T13:42:08.311Z,57.50
2017-10-09T13:44:35.760Z,57.70
2017-10-09T13:47:03.258Z,58.00
2017-10-09T13:52:04.142Z,59.10
2017-10-09T13:54:31.643Z,60.20
2017-10-09T13:56:59.143Z,59.90
2017-10-09T14:04:32.265Z,61.30
2017-10-09T14:06:59.746Z,61.70
2017-10-09T14:09:28.326Z,63.60
2017-10-09T14:11:56.588Z,64.10
2017-10-09T14:14:24.910Z,64.70
2017-10-09T14:24:31.183Z,62.80
2017-10-09T14:26:59.440Z,63.20
2017-10-09T14:41:50.039Z,60.50
2017-10-09T14:44:18.311Z,61.30
2017-10-09T14:46:45.795Z,62.00
2017-10-09T14:49:14.058Z,60.80
2017-10-09T14:51:42.327Z,60.90
2017-10-09T14:54:10.650Z,61.50
2017-10-09T14:56:38.130Z,61.40
2017-10-09T14:59:05.627Z,62.00
2017-10-09T15:01:33.912Z,61.60
2017-10-09T15:04:02.160Z,61.80
2017-10-09T15:06:29.668Z,61.80
2017-10-09T15:08:57.171Z,61.60
2017-10-09T15:11:24.667Z,62.20
2017-10-09T15:13:52.928Z,63.20
2017-10-09T15:16:21.216Z,63.10
2017-10-09T15:18:49.477Z,64.30
2017-10-09T15:21:16.960Z,64.20
2017-10-09T15:23:45.218Z,64.00
2017-10-09T15:26:13.492Z,64.30
2017-10-09T15:28:41.006Z,64.30
2017-10-09T15:31:08.501Z,64.60
2017-10-09T15:33:36.771Z,64.90
2017-10-09T15:36:04.277Z,64.90
2017-10-09T15:38:31.787Z,65.10
2017-10-09T15:41:00.059Z,67.10
2017-10-09T15:43:27.538Z,67.00
2017-10-09T15:45:55.793Z,66.60
2017-10-09T15:48:23.298Z,66.60
2017-10-09T15:50:50.783Z,67.00
2017-10-09T15:53:18.286Z,67.30
2017-10-09T15:55:46.573Z,67.10
2017-10-09T15:58:14.079Z,66.90
2017-10-09T16:00:41.577Z,67.30
2017-10-09T16:03:09.838Z,68.50
2017-10-09T16:05:37.324Z,68.40
2017-10-09T16:08:05.602Z,69.20
2017-10-09T16:10:33.860Z,69.40
2017-10-09T16:13:01.340Z,69.40
2017-10-09T16:15:29.615Z,69.60
2017-10-09T16:17:57.863Z,70.00
2017-10-09T16:20:25.379Z,70.00
2017-10-09T16:22:52.866Z,70.70
2017-10-09T16:25:20.352Z,70.00
2017-10-09T16:27:48.623Z,70.50
2017-10-09T16:30:16.109Z,70.30
2017-10-09T16:32:43.659Z,70.60
2017-10-09T16:35:11.906Z,71.10
2017-10-09T16:37:39.731Z,71.10
2017-10-09T16:40:07.234Z,71.30
2017-10-09T16:42:34.714Z,71.70
2017-10-09T16:45:02.980Z,71.90
2017-10-09T16:47:31.242Z,71.90
2017-10-09T16:49:58.812Z,71.80
2017-10-09T16:52:26.299Z,71.90
2017-10-09T16:54:53.782Z,71.60
2017-10-09T16:57:21.291Z,71.90
2017-10-09T16:59:48.862Z,72.00
2017-10-09T17:02:17.139Z,73.00
2017-10-09T17:04:45.386Z,72.90
2017-10-09T17:07:12.887Z,72.70
2017-10-09T17:09:40.367Z,72.80
2017-10-09T17:12:07.855Z,72.90
2017-10-09T17:14:35.516Z,73.00
2017-10-09T17:17:03.000Z,73.20
2017-10-09T17:19:31.263Z,73.60
2017-10-09T17:21:58.752Z,73.50
2017-10-09T17:24:27.062Z,74.30
2017-10-09T17:26:54.610Z,74.30
2017-10-09T17:29:22.099Z,74.70
2017-10-09T17:31:49.599Z,74.70
2017-10-09T17:34:17.859Z,75.10
2017-10-09T17:36:45.362Z,75.00
2017-10-09T17:39:12.864Z,75.30
2017-10-09T17:41:40.352Z,75.50
2017-10-09T17:44:08.621Z,75.90
2017-10-09T17:46:36.867Z,76.10
2017-10-09T17:49:04.376Z,76.00
2017-10-09T17:51:32.638Z,76.10
2017-10-09T17:54:00.926Z,76.10
2017-10-09T17:56:28.426Z,76.00
2017-10-09T17:58:55.917Z,76.10
2017-10-09T18:01:24.192Z,76.40
2017-10-09T18:03:51.766Z,76.20
2017-10-09T18:06:20.039Z,77.00
2017-10-09T18:08:48.293Z,76.40
2017-10-09T18:11:15.775Z,76.20
2017-10-09T18:13:44.059Z,76.20
2017-10-09T18:16:12.331Z,76.20
2017-10-09T18:18:40.593Z,76.30
2017-10-09T18:21:08.183Z,76.20
2017-10-09T18:23:36.275Z,76.40
2017-10-09T18:26:04.859Z,76.50
2017-10-09T18:28:32.414Z,76.70
2017-10-09T18:30:59.939Z,76.80
2017-10-09T18:33:28.223Z,77.10
2017-10-09T18:35:56.519Z,77.40
2017-10-09T18:38:24.015Z,77.30
2017-10-09T18:40:51.518Z,77.40
2017-10-09T18:43:19.793Z,77.40
2017-10-09T18:45:48.116Z,77.40
2017-10-09T18:48:15.870Z,77.40
2017-10-09T18:50:43.354Z,77.20
2017-10-09T18:53:10.863Z,77.30
2017-10-09T18:55:39.407Z,77.40
2017-10-09T18:58:08.049Z,77.20
2017-10-09T19:00:35.600Z,77.20
2017-10-09T19:03:03.088Z,77.10
2017-10-09T19:05:30.589Z,77.10
2017-10-09T19:07:58.859Z,77.30
2017-10-09T19:10:27.118Z,77.30
2017-10-09T19:12:54.604Z,77.20
2017-10-09T19:15:22.879Z,77.30
2017-10-09T19:17:51.127Z,77.20
2017-10-09T19:20:18.615Z,77.20
2017-10-09T19:22:46.876Z,77.50
2017-10-09T19:25:14.362Z,77.30
2017-10-09T19:27:41.867Z,77.20
2017-10-09T19:30:09.355Z,77.20
2017-10-09T19:32:38.360Z,77.70
2017-10-09T19:35:06.608Z,78.00
2017-10-09T19:37:34.111Z,77.80
2017-10-09T19:40:01.603Z,78.20
2017-10-09T19:42:29.139Z,78.50
2017-10-09T19:44:56.635Z,78.60
2017-10-09T19:47:24.127Z,78.80
2017-10-09T19:49:52.395Z,79.70
2017-10-09T19:52:21.387Z,80.10
2017-10-09T19:54:49.667Z,80.20
2017-10-09T19:57:17.925Z,80.60
2017-10-09T19:59:45.422Z,80.50
2017-10-09T20:02:13.680Z,80.30
2017-10-09T20:04:42.011Z,80.40
2017-10-09T20:07:09.666Z,80.20
2017-10-09T20:09:37.170Z,80.20
2017-10-09T20:12:04.669Z,80.50
2017-10-09T20:14:32.230Z,80.70
2017-10-09T20:16:59.714Z,80.60
2017-10-09T20:19:27.255Z,80.50
2017-10-09T20:21:54.739Z,80.60
2017-10-09T20:24:22.256Z,80.70
2017-10-09T20:26:49.757Z,80.90
2017-10-09T20:29:17.272Z,80.40
2017-10-09T20:31:45.591Z,80.40
2017-10-09T20:34:13.084Z,80.80
2017-10-09T20:36:41.354Z,80.80
2017-10-09T20:39:09.612Z,80.80
2017-10-09T20:41:37.377Z,80.70
2017-10-09T20:44:04.857Z,80.70
2017-10-09T20:46:32.459Z,81.00
2017-10-09T20:48:59.952Z,81.00
2017-10-09T20:51:27.458Z,80.60
2017-10-09T20:53:54.960Z,80.60
2017-10-09T20:56:22.446Z,80.50
2017-10-09T20:58:49.952Z,80.50
2017-10-09T21:01:17.448Z,80.50
2017-10-09T21:03:44.967Z,80.50
2017-10-09T21:06:12.472Z,80.30
2017-10-09T21:08:39.958Z,80.30
2017-10-09T21:11:08.227Z,80.10
2017-10-09T21:13:36.488Z,80.10
2017-10-09T21:16:04.012Z,80.00
2017-10-09T21:18:31.556Z,80.10
2017-10-09T21:20:59.049Z,80.00
2017-10-09T21:23:26.551Z,80.00
2017-10-09T21:25:54.038Z,80.00
2017-10-09T21:28:21.526Z,80.00
2017-10-09T21:30:49.012Z,80.00
2017-10-09T21:33:17.293Z,80.00
2017-10-09T21:35:45.603Z,79.90
2017-10-09T21:38:13.085Z,79.80
2017-10-09T21:40:40.613Z,79.70
2017-10-09T21:43:08.107Z,79.50
2017-10-09T21:45:35.599Z,79.30
2017-10-09T21:48:03.847Z,79.30
2017-10-09T21:50:31.364Z,79.30
2017-10-09T21:52:58.852Z,79.20
2017-10-09T21:55:26.370Z,79.00
2017-10-09T21:57:54.624Z,78.70
2017-10-09T22:00:22.871Z,78.60
2017-10-09T22:02:50.358Z,78.60
2017-10-09T22:05:18.612Z,78.70
2017-10-09T22:07:47.680Z,78.60
2017-10-09T22:10:15.228Z,78.60
2017-10-09T22:12:42.745Z,78.70
2017-10-09T22:15:10.998Z,78.50
2017-10-09T22:17:38.509Z,78.50
2017-10-09T22:20:06.020Z,78.60
2017-10-09T22:22:33.514Z,78.70
2017-10-09T22:25:01.770Z,79.10
2017-10-09T22:27:30.022Z,79.20
2017-10-09T22:29:57.514Z,79.20
2017-10-09T22:32:25.766Z,79.60
2017-10-09T22:34:53.277Z,79.50
2017-10-09T22:37:20.762Z,79.60
2017-10-09T22:39:48.255Z,79.70
2017-10-09T22:42:15.742Z,79.60
2017-10-09T22:44:43.983Z,79.80
2017-10-09T22:47:11.474Z,79.70
2017-10-09T22:49:38.961Z,79.90
2017-10-09T22:52:06.483Z,80.00
2017-10-09T22:54:41.441Z,79.90
2017-10-09T22:57:08.941Z,79.70
2017-10-09T22:59:36.474Z,79.70
2017-10-09T23:02:03.967Z,79.80
2017-10-09T23:04:31.472Z,80.10
2017-10-09T23:06:58.967Z,80.70
2017-10-09T23:09:26.495Z,80.80
2017-10-09T23:11:53.991Z,81.10
2017-10-09T23:14:21.475Z,81.20
2017-10-09T23:16:49.910Z,81.40
2017-10-09T23:19:17.393Z,81.30
2017-10-09T23:21:44.912Z,81.60
2017-10-09T23:24:12.405Z,81.50
2017-10-09T23:26:39.924Z,81.60
2017-10-09T23:29:07.415Z,81.60
2017-10-09T23:31:34.902Z,81.70
2017-10-09T23:34:03.167Z,82.00
2017-10-09T23:36:30.643Z,81.90
2017-10-09T23:38:58.898Z,82.30
2017-10-09T23:41:26.383Z,82.10
2017-10-09T23:43:54.626Z,82.30
2017-10-09T23:46:22.130Z,82.30
2017-10-09T23:48:49.640Z,82.40
2017-10-09T23:51:17.119Z,82.40
2017-10-09T23:53:44.625Z,82.50
2017-10-09T23:56:12.107Z,82.50
2017-10-09T23:58:39.690Z,82.60
